Ilyas Efendiyev — 9HES8 — position and weather

sailwx.info

Track history (hours):
 
Tides and Currents Weather Stations Pressure Air Temp Water Temp Dewpoint Dewpoint Depression Visibility Wind Speed Wind Dir Waves Ship Positions

Ilyas Efendiyev

Last reported at 2017-Nov-17 17:48 UTC. Time now 2017-Nov-18 21:53 UTC.
Position N 37°25' E 025°55'.

Length 140 m; draft 4.2 m.

Type: Cargo ship. MMSI: 215901000.

Date/timePositionNaut miles runAvg speedWind from/ knotsBaromVisibWave heightAir tempDewpointWater temp
2017-Nov-17 17:48N 37°25' E 025°55'3 8.9
2017-Nov-17 17:30N 37°27' E 025°54'4 8.5
2017-Nov-17 17:00N 37°31' E 025°52'6 8.7
2017-Nov-17 16:22N 37°37' E 025°52'  
2017-Nov-12 13:24N 45°12' E 036°28'3 8.5
2017-Nov-12 13:00N 45°15' E 036°28'3 5.4
2017-Nov-12 12:31N 45°18' E 036°29'3 6.6
2017-Nov-12 12:00N 45°19' E 036°33'3 5.7
2017-Nov-12 11:30N 45°21' E 036°37'3 6.5
2017-Nov-12 11:00N 45°23' E 036°40'4 7.1
2017-Nov-12 10:31N 45°27' E 036°41'3 5.9
2017-Nov-12 10:00N 45°29' E 036°38'0 0.1
2017-Nov-12 09:25N 45°29' E 036°38'0 0.1
2017-Nov-12 08:58N 45°29' E 036°38'0 0.0
2017-Nov-12 08:26N 45°29' E 036°38'0 0.0
2017-Nov-12 07:53N 45°29' E 036°38'0 0.0
2017-Nov-12 07:30N 45°29' E 036°38'0 0.0
2017-Nov-12 06:59N 45°29' E 036°38'0 0.0
2017-Nov-12 06:23N 45°29' E 036°38'0 0.0
2017-Nov-12 06:00N 45°29' E 036°38'0 0.0
2017-Nov-12 05:30N 45°29' E 036°38'0 0.0
2017-Nov-12 04:59N 45°29' E 036°38'0 0.0
2017-Nov-12 04:28N 45°29' E 036°38'0 0.0
2017-Nov-12 01:13N 45°29' E 036°38'0 0.0
2017-Nov-12 00:59N 45°29' E 036°38'0 0.0
2017-Nov-12 00:28N 45°29' E 036°38'0 0.0
2017-Nov-11 23:58N 45°29' E 036°38'0 0.3
2017-Nov-11 23:29N 45°29' E 036°38'1 2.6
2017-Nov-11 23:00N 45°30' E 036°39'5 8.8
2017-Nov-11 22:29N 45°33' E 036°44'  
Track history (hours):
 
Tides and Currents Weather Stations Pressure Air Temp Water Temp Dewpoint Dewpoint Depression Visibility Wind Speed Wind Dir Waves Ship Positions

Ilyas Efendiyev

Last reported at 2017-Nov-17 17:48 UTC. Time now 2017-Nov-18 21:53 UTC.
Position N 37°25' E 025°55'.

Length 140 m; draft 4.2 m.

Type: Cargo ship. MMSI: 215901000.

Date/timePositionNaut miles runAvg speedWind from/ knotsBaromVisibWave heightAir tempDewpointWater temp
2017-Nov-17 17:48N 37°25' E 025°55'3 8.9
2017-Nov-17 17:30N 37°27' E 025°54'4 8.5
2017-Nov-17 17:00N 37°31' E 025°52'6 8.7
2017-Nov-17 16:22N 37°37' E 025°52'  
2017-Nov-12 13:24N 45°12' E 036°28'3 8.5
2017-Nov-12 13:00N 45°15' E 036°28'3 5.4
2017-Nov-12 12:31N 45°18' E 036°29'3 6.6
2017-Nov-12 12:00N 45°19' E 036°33'3 5.7
2017-Nov-12 11:30N 45°21' E 036°37'3 6.5
2017-Nov-12 11:00N 45°23' E 036°40'4 7.1
2017-Nov-12 10:31N 45°27' E 036°41'3 5.9
2017-Nov-12 10:00N 45°29' E 036°38'0 0.1
2017-Nov-12 09:25N 45°29' E 036°38'0 0.1
2017-Nov-12 08:58N 45°29' E 036°38'0 0.0
2017-Nov-12 08:26N 45°29' E 036°38'0 0.0
2017-Nov-12 07:53N 45°29' E 036°38'0 0.0
2017-Nov-12 07:30N 45°29' E 036°38'0 0.0
2017-Nov-12 06:59N 45°29' E 036°38'0 0.0
2017-Nov-12 06:23N 45°29' E 036°38'0 0.0
2017-Nov-12 06:00N 45°29' E 036°38'0 0.0
2017-Nov-12 05:30N 45°29' E 036°38'0 0.0
2017-Nov-12 04:59N 45°29' E 036°38'0 0.0
2017-Nov-12 04:28N 45°29' E 036°38'0 0.0
2017-Nov-12 01:13N 45°29' E 036°38'0 0.0
2017-Nov-12 00:59N 45°29' E 036°38'0 0.0
2017-Nov-12 00:28N 45°29' E 036°38'0 0.0
2017-Nov-11 23:58N 45°29' E 036°38'0 0.3
2017-Nov-11 23:29N 45°29' E 036°38'1 2.6
2017-Nov-11 23:00N 45°30' E 036°39'5 8.8
2017-Nov-11 22:29N 45°33' E 036°44'  

Dump ship's entire track history